sensor_id;sensor_type;location;lat;lon;timestamp;P1;durP1;ratioP1;P2;durP2;ratioP2
45688;SDS011;31400;48.132;20.872;2022-08-19T00:01:30;8.52;;;4.80;;
45688;SDS011;31400;48.132;20.872;2022-08-19T00:04:00;6.85;;;4.18;;
45688;SDS011;31400;48.132;20.872;2022-08-19T00:06:27;6.63;;;4.38;;
45688;SDS011;31400;48.132;20.872;2022-08-19T00:08:58;9.27;;;4.43;;
45688;SDS011;31400;48.132;20.872;2022-08-19T00:11:25;6.53;;;4.45;;
45688;SDS011;31400;48.132;20.872;2022-08-19T00:13:53;7.28;;;3.90;;
45688;SDS011;31400;48.132;20.872;2022-08-19T00:16:19;9.02;;;4.10;;
45688;SDS011;31400;48.132;20.872;2022-08-19T00:18:46;5.40;;;3.92;;
45688;SDS011;31400;48.132;20.872;2022-08-19T00:21:12;7.40;;;4.30;;
45688;SDS011;31400;48.132;20.872;2022-08-19T00:23:39;9.45;;;4.95;;
45688;SDS011;31400;48.132;20.872;2022-08-19T00:26:05;7.57;;;4.80;;
45688;SDS011;31400;48.132;20.872;2022-08-19T00:28:32;10.10;;;4.22;;
45688;SDS011;31400;48.132;20.872;2022-08-19T00:31:00;5.50;;;3.80;;
45688;SDS011;31400;48.132;20.872;2022-08-19T00:33:28;12.63;;;5.20;;
45688;SDS011;31400;48.132;20.872;2022-08-19T00:35:57;6.70;;;4.15;;
45688;SDS011;31400;48.132;20.872;2022-08-19T00:38:23;9.50;;;4.53;;
45688;SDS011;31400;48.132;20.872;2022-08-19T00:40:52;5.75;;;4.15;;
45688;SDS011;31400;48.132;20.872;2022-08-19T00:43:19;8.23;;;4.15;;
45688;SDS011;31400;48.132;20.872;2022-08-19T00:45:46;8.73;;;3.63;;
45688;SDS011;31400;48.132;20.872;2022-08-19T00:48:13;5.13;;;3.67;;
45688;SDS011;31400;48.132;20.872;2022-08-19T00:50:40;5.50;;;3.85;;
45688;SDS011;31400;48.132;20.872;2022-08-19T00:53:08;7.82;;;4.80;;
45688;SDS011;31400;48.132;20.872;2022-08-19T00:55:35;8.55;;;4.65;;
45688;SDS011;31400;48.132;20.872;2022-08-19T00:58:04;7.10;;;4.38;;
45688;SDS011;31400;48.132;20.872;2022-08-19T01:00:32;6.43;;;4.78;;
45688;SDS011;31400;48.132;20.872;2022-08-19T01:03:03;17.15;;;4.72;;
45688;SDS011;31400;48.132;20.872;2022-08-19T01:05:30;8.77;;;4.85;;
45688;SDS011;31400;48.132;20.872;2022-08-19T01:07:58;6.25;;;4.40;;
45688;SDS011;31400;48.132;20.872;2022-08-19T01:10:25;8.15;;;4.30;;
45688;SDS011;31400;48.132;20.872;2022-08-19T01:12:52;6.10;;;4.40;;
45688;SDS011;31400;48.132;20.872;2022-08-19T01:15:21;7.15;;;4.32;;
45688;SDS011;31400;48.132;20.872;2022-08-19T01:17:48;7.00;;;4.57;;
45688;SDS011;31400;48.132;20.872;2022-08-19T01:20:18;6.30;;;4.40;;
45688;SDS011;31400;48.132;20.872;2022-08-19T01:22:49;7.78;;;3.75;;
45688;SDS011;31400;48.132;20.872;2022-08-19T01:25:17;7.38;;;4.30;;
45688;SDS011;31400;48.132;20.872;2022-08-19T01:27:44;6.72;;;3.75;;
45688;SDS011;31400;48.132;20.872;2022-08-19T01:30:14;7.93;;;4.25;;
45688;SDS011;31400;48.132;20.872;2022-08-19T01:32:42;8.10;;;4.22;;
45688;SDS011;31400;48.132;20.872;2022-08-19T01:35:10;8.85;;;4.30;;
45688;SDS011;31400;48.132;20.872;2022-08-19T01:37:51;9.23;;;3.88;;
45688;SDS011;31400;48.132;20.872;2022-08-19T01:40:18;9.52;;;4.95;;
45688;SDS011;31400;48.132;20.872;2022-08-19T01:42:46;12.20;;;5.75;;
45688;SDS011;31400;48.132;20.872;2022-08-19T01:45:12;6.60;;;3.88;;
45688;SDS011;31400;48.132;20.872;2022-08-19T01:47:39;7.75;;;4.13;;
45688;SDS011;31400;48.132;20.872;2022-08-19T01:50:06;4.70;;;3.90;;
45688;SDS011;31400;48.132;20.872;2022-08-19T01:52:34;5.93;;;4.10;;
45688;SDS011;31400;48.132;20.872;2022-08-19T01:55:00;7.15;;;4.20;;
45688;SDS011;31400;48.132;20.872;2022-08-19T01:59:52;9.57;;;4.43;;
45688;SDS011;31400;48.132;20.872;2022-08-19T02:02:18;6.40;;;4.43;;
45688;SDS011;31400;48.132;20.872;2022-08-19T02:04:44;7.35;;;4.53;;
45688;SDS011;31400;48.132;20.872;2022-08-19T02:07:14;5.18;;;3.83;;
45688;SDS011;31400;48.132;20.872;2022-08-19T02:12:06;8.65;;;5.20;;
45688;SDS011;31400;48.132;20.872;2022-08-19T02:14:34;12.23;;;4.18;;
45688;SDS011;31400;48.132;20.872;2022-08-19T02:17:00;6.43;;;4.57;;
45688;SDS011;31400;48.132;20.872;2022-08-19T02:21:52;6.28;;;4.15;;
45688;SDS011;31400;48.132;20.872;2022-08-19T02:24:18;8.30;;;4.80;;
45688;SDS011;31400;48.132;20.872;2022-08-19T02:26:44;5.82;;;3.95;;
45688;SDS011;31400;48.132;20.872;2022-08-19T02:29:11;6.20;;;4.60;;
45688;SDS011;31400;48.132;20.872;2022-08-19T02:31:37;7.90;;;4.07;;
45688;SDS011;31400;48.132;20.872;2022-08-19T02:36:28;6.60;;;4.65;;
45688;SDS011;31400;48.132;20.872;2022-08-19T02:38:55;8.02;;;5.05;;
45688;SDS011;31400;48.132;20.872;2022-08-19T02:41:23;7.55;;;5.05;;
45688;SDS011;31400;48.132;20.872;2022-08-19T02:43:49;8.55;;;4.88;;
45688;SDS011;31400;48.132;20.872;2022-08-19T02:46:20;8.30;;;5.07;;
45688;SDS011;31400;48.132;20.872;2022-08-19T02:48:48;6.65;;;4.22;;
45688;SDS011;31400;48.132;20.872;2022-08-19T02:51:18;8.88;;;5.40;;
45688;SDS011;31400;48.132;20.872;2022-08-19T02:53:44;9.38;;;5.30;;
45688;SDS011;31400;48.132;20.872;2022-08-19T02:58:36;9.73;;;5.85;;
45688;SDS011;31400;48.132;20.872;2022-08-19T03:03:28;14.45;;;6.50;;
45688;SDS011;31400;48.132;20.872;2022-08-19T03:08:20;7.45;;;5.60;;
45688;SDS011;31400;48.132;20.872;2022-08-19T03:13:13;12.48;;;5.60;;
45688;SDS011;31400;48.132;20.872;2022-08-19T03:15:41;11.25;;;6.43;;
45688;SDS011;31400;48.132;20.872;2022-08-19T03:18:07;9.07;;;5.45;;
45688;SDS011;31400;48.132;20.872;2022-08-19T03:20:33;8.18;;;5.55;;
45688;SDS011;31400;48.132;20.872;2022-08-19T03:22:59;9.43;;;6.53;;
45688;SDS011;31400;48.132;20.872;2022-08-19T03:25:26;13.60;;;5.82;;
45688;SDS011;31400;48.132;20.872;2022-08-19T03:30:18;9.35;;;5.50;;
45688;SDS011;31400;48.132;20.872;2022-08-19T03:35:10;9.48;;;5.40;;
45688;SDS011;31400;48.132;20.872;2022-08-19T03:40:02;8.75;;;5.75;;
45688;SDS011;31400;48.132;20.872;2022-08-19T03:42:29;10.13;;;6.57;;
45688;SDS011;31400;48.132;20.872;2022-08-19T03:44:57;9.98;;;5.57;;
45688;SDS011;31400;48.132;20.872;2022-08-19T03:47:23;8.27;;;5.78;;
45688;SDS011;31400;48.132;20.872;2022-08-19T03:52:15;8.45;;;5.32;;
45688;SDS011;31400;48.132;20.872;2022-08-19T03:57:07;9.32;;;5.13;;
45688;SDS011;31400;48.132;20.872;2022-08-19T03:59:34;10.13;;;5.93;;
45688;SDS011;31400;48.132;20.872;2022-08-19T04:02:02;9.93;;;6.18;;
45688;SDS011;31400;48.132;20.872;2022-08-19T04:04:28;9.75;;;6.07;;
45688;SDS011;31400;48.132;20.872;2022-08-19T04:09:20;12.00;;;4.93;;
45688;SDS011;31400;48.132;20.872;2022-08-19T04:11:47;10.10;;;5.60;;
45688;SDS011;31400;48.132;20.872;2022-08-19T04:14:17;11.80;;;5.25;;
45688;SDS011;31400;48.132;20.872;2022-08-19T04:16:44;9.10;;;5.25;;
45688;SDS011;31400;48.132;20.872;2022-08-19T04:19:11;7.53;;;5.63;;
45688;SDS011;31400;48.132;20.872;2022-08-19T04:21:37;8.70;;;5.50;;
45688;SDS011;31400;48.132;20.872;2022-08-19T04:24:05;12.50;;;5.00;;
45688;SDS011;31400;48.132;20.872;2022-08-19T04:26:33;8.30;;;5.13;;
45688;SDS011;31400;48.132;20.872;2022-08-19T04:29:01;9.23;;;5.45;;
45688;SDS011;31400;48.132;20.872;2022-08-19T04:31:28;12.18;;;5.22;;
45688;SDS011;31400;48.132;20.872;2022-08-19T04:33:55;9.77;;;5.07;;
45688;SDS011;31400;48.132;20.872;2022-08-19T04:36:29;8.25;;;5.38;;
45688;SDS011;31400;48.132;20.872;2022-08-19T04:38:56;7.90;;;5.30;;
45688;SDS011;31400;48.132;20.872;2022-08-19T04:41:23;7.35;;;4.93;;
45688;SDS011;31400;48.132;20.872;2022-08-19T04:44:08;6.32;;;4.30;;
45688;SDS011;31400;48.132;20.872;2022-08-19T04:46:34;8.43;;;5.22;;
45688;SDS011;31400;48.132;20.872;2022-08-19T04:49:01;10.50;;;5.57;;
45688;SDS011;31400;48.132;20.872;2022-08-19T04:51:27;9.93;;;5.07;;
45688;SDS011;31400;48.132;20.872;2022-08-19T04:53:56;8.15;;;5.45;;
45688;SDS011;31400;48.132;20.872;2022-08-19T04:56:22;9.02;;;5.18;;
45688;SDS011;31400;48.132;20.872;2022-08-19T04:58:51;15.80;;;6.15;;
45688;SDS011;31400;48.132;20.872;2022-08-19T05:01:19;8.68;;;5.60;;
45688;SDS011;31400;48.132;20.872;2022-08-19T05:03:45;12.00;;;5.38;;
45688;SDS011;31400;48.132;20.872;2022-08-19T05:06:13;10.23;;;6.22;;
45688;SDS011;31400;48.132;20.872;2022-08-19T05:08:40;8.95;;;5.68;;
45688;SDS011;31400;48.132;20.872;2022-08-19T05:13:36;8.95;;;5.30;;
45688;SDS011;31400;48.132;20.872;2022-08-19T05:16:03;9.18;;;5.35;;
45688;SDS011;31400;48.132;20.872;2022-08-19T05:18:29;9.77;;;5.30;;
45688;SDS011;31400;48.132;20.872;2022-08-19T05:21:15;6.95;;;4.97;;
45688;SDS011;31400;48.132;20.872;2022-08-19T05:24:00;7.40;;;5.53;;
45688;SDS011;31400;48.132;20.872;2022-08-19T05:26:27;7.68;;;5.65;;
45688;SDS011;31400;48.132;20.872;2022-08-19T05:28:53;9.38;;;5.30;;
45688;SDS011;31400;48.132;20.872;2022-08-19T05:31:20;12.63;;;6.18;;
45688;SDS011;31400;48.132;20.872;2022-08-19T05:33:46;7.93;;;5.85;;
45688;SDS011;31400;48.132;20.872;2022-08-19T05:36:12;10.20;;;5.78;;
45688;SDS011;31400;48.132;20.872;2022-08-19T05:38:39;8.43;;;5.63;;
45688;SDS011;31400;48.132;20.872;2022-08-19T05:41:12;9.38;;;5.55;;
45688;SDS011;31400;48.132;20.872;2022-08-19T05:43:38;7.47;;;4.80;;
45688;SDS011;31400;48.132;20.872;2022-08-19T05:46:05;7.18;;;5.13;;
45688;SDS011;31400;48.132;20.872;2022-08-19T05:48:34;10.00;;;5.82;;
45688;SDS011;31400;48.132;20.872;2022-08-19T05:51:07;8.73;;;5.05;;
45688;SDS011;31400;48.132;20.872;2022-08-19T05:53:34;7.18;;;5.05;;
45688;SDS011;31400;48.132;20.872;2022-08-19T05:56:05;7.55;;;4.97;;
45688;SDS011;31400;48.132;20.872;2022-08-19T05:58:31;7.50;;;4.55;;
45688;SDS011;31400;48.132;20.872;2022-08-19T06:00:58;7.82;;;4.80;;
45688;SDS011;31400;48.132;20.872;2022-08-19T06:03:29;7.95;;;4.57;;
45688;SDS011;31400;48.132;20.872;2022-08-19T06:05:55;9.98;;;4.78;;
45688;SDS011;31400;48.132;20.872;2022-08-19T06:08:23;7.57;;;5.35;;
45688;SDS011;31400;48.132;20.872;2022-08-19T06:10:49;7.22;;;5.47;;
45688;SDS011;31400;48.132;20.872;2022-08-19T06:13:15;8.50;;;4.82;;
45688;SDS011;31400;48.132;20.872;2022-08-19T06:15:43;9.23;;;5.45;;
45688;SDS011;31400;48.132;20.872;2022-08-19T06:18:14;9.07;;;4.88;;
45688;SDS011;31400;48.132;20.872;2022-08-19T06:20:42;5.97;;;4.40;;
45688;SDS011;31400;48.132;20.872;2022-08-19T06:23:08;9.00;;;4.57;;
45688;SDS011;31400;48.132;20.872;2022-08-19T06:25:34;7.53;;;3.88;;
45688;SDS011;31400;48.132;20.872;2022-08-19T06:28:01;6.93;;;5.05;;
45688;SDS011;31400;48.132;20.872;2022-08-19T06:30:27;6.88;;;4.75;;
45688;SDS011;31400;48.132;20.872;2022-08-19T06:32:53;7.40;;;4.72;;
45688;SDS011;31400;48.132;20.872;2022-08-19T06:35:19;8.50;;;5.53;;
45688;SDS011;31400;48.132;20.872;2022-08-19T06:37:45;7.50;;;5.18;;
45688;SDS011;31400;48.132;20.872;2022-08-19T06:40:11;8.25;;;4.88;;
45688;SDS011;31400;48.132;20.872;2022-08-19T06:42:38;7.03;;;5.10;;
45688;SDS011;31400;48.132;20.872;2022-08-19T06:45:04;6.72;;;4.82;;
45688;SDS011;31400;48.132;20.872;2022-08-19T06:47:33;5.78;;;4.55;;
45688;SDS011;31400;48.132;20.872;2022-08-19T06:49:59;10.77;;;4.82;;
45688;SDS011;31400;48.132;20.872;2022-08-19T06:52:31;9.55;;;5.28;;
45688;SDS011;31400;48.132;20.872;2022-08-19T06:54:59;8.73;;;4.93;;
45688;SDS011;31400;48.132;20.872;2022-08-19T06:57:25;6.70;;;4.47;;
45688;SDS011;31400;48.132;20.872;2022-08-19T06:59:52;5.05;;;4.20;;
45688;SDS011;31400;48.132;20.872;2022-08-19T07:02:18;9.80;;;4.65;;
45688;SDS011;31400;48.132;20.872;2022-08-19T07:04:45;7.53;;;4.97;;
45688;SDS011;31400;48.132;20.872;2022-08-19T07:07:13;6.43;;;4.43;;
45688;SDS011;31400;48.132;20.872;2022-08-19T07:09:41;10.10;;;4.93;;
45688;SDS011;31400;48.132;20.872;2022-08-19T07:12:08;7.15;;;4.65;;
45688;SDS011;31400;48.132;20.872;2022-08-19T07:14:34;5.95;;;4.18;;
45688;SDS011;31400;48.132;20.872;2022-08-19T07:17:02;10.07;;;4.82;;
45688;SDS011;31400;48.132;20.872;2022-08-19T07:19:28;10.43;;;4.85;;
45688;SDS011;31400;48.132;20.872;2022-08-19T07:21:54;8.55;;;5.75;;
45688;SDS011;31400;48.132;20.872;2022-08-19T07:24:24;6.00;;;4.03;;
45688;SDS011;31400;48.132;20.872;2022-08-19T07:26:52;4.60;;;3.85;;
45688;SDS011;31400;48.132;20.872;2022-08-19T07:29:18;8.40;;;4.70;;
45688;SDS011;31400;48.132;20.872;2022-08-19T07:31:48;7.75;;;3.72;;
45688;SDS011;31400;48.132;20.872;2022-08-19T07:34:14;5.80;;;4.47;;
45688;SDS011;31400;48.132;20.872;2022-08-19T07:36:41;8.80;;;4.00;;
45688;SDS011;31400;48.132;20.872;2022-08-19T07:39:09;5.45;;;3.92;;
45688;SDS011;31400;48.132;20.872;2022-08-19T07:41:35;8.82;;;4.57;;
45688;SDS011;31400;48.132;20.872;2022-08-19T07:44:02;4.68;;;3.60;;
45688;SDS011;31400;48.132;20.872;2022-08-19T07:46:30;8.50;;;4.18;;
45688;SDS011;31400;48.132;20.872;2022-08-19T07:48:59;9.20;;;4.43;;
45688;SDS011;31400;48.132;20.872;2022-08-19T07:51:26;12.02;;;5.88;;
45688;SDS011;31400;48.132;20.872;2022-08-19T07:53:52;5.70;;;4.38;;
45688;SDS011;31400;48.132;20.872;2022-08-19T07:56:23;5.85;;;4.30;;
45688;SDS011;31400;48.132;20.872;2022-08-19T07:58:52;5.38;;;3.85;;
45688;SDS011;31400;48.132;20.872;2022-08-19T08:01:21;7.70;;;4.13;;
45688;SDS011;31400;48.132;20.872;2022-08-19T08:03:51;5.68;;;3.95;;
45688;SDS011;31400;48.132;20.872;2022-08-19T08:06:38;7.72;;;3.75;;
45688;SDS011;31400;48.132;20.872;2022-08-19T08:09:24;4.82;;;3.20;;
45688;SDS011;31400;48.132;20.872;2022-08-19T08:14:39;3.72;;;2.70;;
45688;SDS011;31400;48.132;20.872;2022-08-19T08:17:06;5.40;;;3.15;;
45688;SDS011;31400;48.132;20.872;2022-08-19T08:19:33;5.18;;;3.35;;
45688;SDS011;31400;48.132;20.872;2022-08-19T08:22:04;4.93;;;3.65;;
45688;SDS011;31400;48.132;20.872;2022-08-19T08:24:56;4.88;;;3.40;;
45688;SDS011;31400;48.132;20.872;2022-08-19T08:27:28;4.90;;;3.55;;
45688;SDS011;31400;48.132;20.872;2022-08-19T08:29:57;6.70;;;3.63;;
45688;SDS011;31400;48.132;20.872;2022-08-19T08:32:27;4.40;;;2.72;;
45688;SDS011;31400;48.132;20.872;2022-08-19T08:34:55;5.07;;;3.60;;
45688;SDS011;31400;48.132;20.872;2022-08-19T08:37:24;5.95;;;3.10;;
45688;SDS011;31400;48.132;20.872;2022-08-19T08:39:57;4.93;;;3.38;;
45688;SDS011;31400;48.132;20.872;2022-08-19T08:45:10;4.65;;;3.25;;
45688;SDS011;31400;48.132;20.872;2022-08-19T08:47:40;8.18;;;3.25;;
45688;SDS011;31400;48.132;20.872;2022-08-19T08:50:15;5.13;;;3.53;;
45688;SDS011;31400;48.132;20.872;2022-08-19T08:52:44;5.85;;;2.97;;
45688;SDS011;31400;48.132;20.872;2022-08-19T08:55:16;4.25;;;3.08;;
45688;SDS011;31400;48.132;20.872;2022-08-19T09:00:30;4.20;;;3.08;;
45688;SDS011;31400;48.132;20.872;2022-08-19T09:03:16;9.82;;;4.93;;
45688;SDS011;31400;48.132;20.872;2022-08-19T09:08:31;5.20;;;3.00;;
45688;SDS011;31400;48.132;20.872;2022-08-19T09:10:59;5.72;;;3.60;;
45688;SDS011;31400;48.132;20.872;2022-08-19T09:16:19;4.22;;;2.92;;
45688;SDS011;31400;48.132;20.872;2022-08-19T09:18:52;4.10;;;2.95;;
45688;SDS011;31400;48.132;20.872;2022-08-19T09:21:30;4.70;;;3.30;;
45688;SDS011;31400;48.132;20.872;2022-08-19T09:23:57;6.63;;;3.28;;
45688;SDS011;31400;48.132;20.872;2022-08-19T09:26:29;4.70;;;3.20;;
45688;SDS011;31400;48.132;20.872;2022-08-19T09:29:03;4.93;;;2.60;;
45688;SDS011;31400;48.132;20.872;2022-08-19T09:31:32;5.28;;;2.80;;
45688;SDS011;31400;48.132;20.872;2022-08-19T09:34:13;9.35;;;3.28;;
45688;SDS011;31400;48.132;20.872;2022-08-19T09:36:43;6.10;;;2.80;;
45688;SDS011;31400;48.132;20.872;2022-08-19T09:39:12;4.85;;;2.65;;
45688;SDS011;31400;48.132;20.872;2022-08-19T09:41:50;3.97;;;2.33;;
45688;SDS011;31400;48.132;20.872;2022-08-19T09:44:22;5.25;;;2.85;;
45688;SDS011;31400;48.132;20.872;2022-08-19T09:46:52;5.50;;;2.95;;
45688;SDS011;31400;48.132;20.872;2022-08-19T09:49:19;4.40;;;3.75;;
45688;SDS011;31400;48.132;20.872;2022-08-19T09:52:11;4.00;;;2.85;;
45688;SDS011;31400;48.132;20.872;2022-08-19T09:54:38;5.10;;;3.40;;
45688;SDS011;31400;48.132;20.872;2022-08-19T09:57:07;5.15;;;3.13;;
45688;SDS011;31400;48.132;20.872;2022-08-19T09:59:33;4.53;;;3.00;;
45688;SDS011;31400;48.132;20.872;2022-08-19T10:02:00;11.00;;;3.83;;
45688;SDS011;31400;48.132;20.872;2022-08-19T10:04:27;5.05;;;3.17;;
45688;SDS011;31400;48.132;20.872;2022-08-19T10:07:13;4.22;;;2.88;;
45688;SDS011;31400;48.132;20.872;2022-08-19T10:09:39;5.57;;;3.60;;
45688;SDS011;31400;48.132;20.872;2022-08-19T10:12:08;4.22;;;3.28;;
45688;SDS011;31400;48.132;20.872;2022-08-19T10:14:37;7.15;;;3.10;;
45688;SDS011;31400;48.132;20.872;2022-08-19T10:17:04;6.22;;;3.20;;
45688;SDS011;31400;48.132;20.872;2022-08-19T10:19:33;6.32;;;3.28;;
45688;SDS011;31400;48.132;20.872;2022-08-19T10:22:07;4.60;;;2.92;;
45688;SDS011;31400;48.132;20.872;2022-08-19T10:24:33;5.72;;;4.10;;
45688;SDS011;31400;48.132;20.872;2022-08-19T10:27:00;4.95;;;2.95;;
45688;SDS011;31400;48.132;20.872;2022-08-19T10:29:30;5.22;;;3.33;;
45688;SDS011;31400;48.132;20.872;2022-08-19T10:32:00;4.47;;;3.50;;
45688;SDS011;31400;48.132;20.872;2022-08-19T10:34:31;5.57;;;3.08;;
45688;SDS011;31400;48.132;20.872;2022-08-19T10:36:57;4.53;;;2.70;;
45688;SDS011;31400;48.132;20.872;2022-08-19T10:39:24;5.13;;;3.20;;
45688;SDS011;31400;48.132;20.872;2022-08-19T10:41:51;4.97;;;3.45;;
45688;SDS011;31400;48.132;20.872;2022-08-19T10:44:18;5.00;;;3.50;;
45688;SDS011;31400;48.132;20.872;2022-08-19T10:46:48;4.38;;;2.90;;
45688;SDS011;31400;48.132;20.872;2022-08-19T10:49:20;4.70;;;3.00;;
45688;SDS011;31400;48.132;20.872;2022-08-19T10:51:48;4.75;;;3.20;;
45688;SDS011;31400;48.132;20.872;2022-08-19T10:54:33;3.80;;;2.80;;
45688;SDS011;31400;48.132;20.872;2022-08-19T10:57:17;5.25;;;3.67;;
45688;SDS011;31400;48.132;20.872;2022-08-19T10:59:44;4.68;;;3.10;;
45688;SDS011;31400;48.132;20.872;2022-08-19T11:02:10;3.75;;;2.60;;
45688;SDS011;31400;48.132;20.872;2022-08-19T11:04:38;4.47;;;3.22;;
45688;SDS011;31400;48.132;20.872;2022-08-19T11:07:05;5.20;;;3.35;;
45688;SDS011;31400;48.132;20.872;2022-08-19T11:09:39;4.90;;;3.10;;
45688;SDS011;31400;48.132;20.872;2022-08-19T11:12:07;6.35;;;3.72;;
45688;SDS011;31400;48.132;20.872;2022-08-19T11:14:37;5.38;;;3.35;;
45688;SDS011;31400;48.132;20.872;2022-08-19T11:17:04;5.22;;;3.28;;
45688;SDS011;31400;48.132;20.872;2022-08-19T11:19:39;4.00;;;3.10;;
45688;SDS011;31400;48.132;20.872;2022-08-19T11:22:08;4.63;;;3.38;;
45688;SDS011;31400;48.132;20.872;2022-08-19T11:24:37;4.75;;;3.22;;
45688;SDS011;31400;48.132;20.872;2022-08-19T11:27:05;5.38;;;3.45;;
45688;SDS011;31400;48.132;20.872;2022-08-19T11:29:33;4.50;;;2.85;;
45688;SDS011;31400;48.132;20.872;2022-08-19T11:31:59;4.03;;;3.00;;
45688;SDS011;31400;48.132;20.872;2022-08-19T11:34:29;4.22;;;2.58;;
45688;SDS011;31400;48.132;20.872;2022-08-19T11:37:00;8.35;;;3.20;;
45688;SDS011;31400;48.132;20.872;2022-08-19T11:39:37;7.97;;;3.72;;
45688;SDS011;31400;48.132;20.872;2022-08-19T11:42:06;5.10;;;3.13;;
45688;SDS011;31400;48.132;20.872;2022-08-19T11:44:52;3.75;;;2.83;;
45688;SDS011;31400;48.132;20.872;2022-08-19T11:47:19;4.40;;;2.80;;
45688;SDS011;31400;48.132;20.872;2022-08-19T11:49:48;4.03;;;3.17;;
45688;SDS011;31400;48.132;20.872;2022-08-19T11:52:14;8.25;;;3.83;;
45688;SDS011;31400;48.132;20.872;2022-08-19T11:54:40;3.72;;;2.88;;
45688;SDS011;31400;48.132;20.872;2022-08-19T11:57:10;5.50;;;2.95;;
45688;SDS011;31400;48.132;20.872;2022-08-19T11:59:51;5.60;;;3.47;;
45688;SDS011;31400;48.132;20.872;2022-08-19T12:02:20;3.80;;;2.83;;
45688;SDS011;31400;48.132;20.872;2022-08-19T12:04:48;7.07;;;3.15;;
45688;SDS011;31400;48.132;20.872;2022-08-19T12:07:14;5.30;;;3.20;;
45688;SDS011;31400;48.132;20.872;2022-08-19T12:09:40;5.22;;;3.45;;
45688;SDS011;31400;48.132;20.872;2022-08-19T12:12:06;7.40;;;3.40;;
45688;SDS011;31400;48.132;20.872;2022-08-19T12:14:34;4.07;;;2.92;;
45688;SDS011;31400;48.132;20.872;2022-08-19T12:17:00;3.97;;;3.30;;
45688;SDS011;31400;48.132;20.872;2022-08-19T12:19:29;6.95;;;3.63;;
45688;SDS011;31400;48.132;20.872;2022-08-19T12:21:59;4.70;;;3.38;;
45688;SDS011;31400;48.132;20.872;2022-08-19T12:24:29;5.20;;;3.20;;
45688;SDS011;31400;48.132;20.872;2022-08-19T12:26:59;4.57;;;3.03;;
45688;SDS011;31400;48.132;20.872;2022-08-19T12:29:26;6.13;;;2.53;;
45688;SDS011;31400;48.132;20.872;2022-08-19T12:31:54;6.65;;;3.63;;
45688;SDS011;31400;48.132;20.872;2022-08-19T12:34:40;5.07;;;3.00;;
45688;SDS011;31400;48.132;20.872;2022-08-19T12:37:08;12.35;;;3.53;;
45688;SDS011;31400;48.132;20.872;2022-08-19T12:39:35;4.40;;;3.20;;
45688;SDS011;31400;48.132;20.872;2022-08-19T12:42:01;5.80;;;3.28;;
45688;SDS011;31400;48.132;20.872;2022-08-19T12:44:28;8.15;;;3.47;;
45688;SDS011;31400;48.132;20.872;2022-08-19T12:46:55;4.15;;;3.03;;
45688;SDS011;31400;48.132;20.872;2022-08-19T12:49:22;4.40;;;2.92;;
45688;SDS011;31400;48.132;20.872;2022-08-19T12:51:50;5.93;;;2.85;;
45688;SDS011;31400;48.132;20.872;2022-08-19T12:54:17;4.88;;;3.20;;
45688;SDS011;31400;48.132;20.872;2022-08-19T12:56:43;3.88;;;2.97;;
45688;SDS011;31400;48.132;20.872;2022-08-19T12:59:09;4.28;;;3.10;;
45688;SDS011;31400;48.132;20.872;2022-08-19T13:01:36;4.22;;;2.90;;
45688;SDS011;31400;48.132;20.872;2022-08-19T13:04:10;4.78;;;3.25;;
45688;SDS011;31400;48.132;20.872;2022-08-19T13:06:36;5.22;;;3.42;;
45688;SDS011;31400;48.132;20.872;2022-08-19T13:09:07;5.78;;;3.25;;
45688;SDS011;31400;48.132;20.872;2022-08-19T13:11:33;4.60;;;3.50;;
45688;SDS011;31400;48.132;20.872;2022-08-19T13:14:01;4.07;;;2.90;;
45688;SDS011;31400;48.132;20.872;2022-08-19T13:16:28;3.95;;;2.80;;
45688;SDS011;31400;48.132;20.872;2022-08-19T13:18:54;5.10;;;3.13;;
45688;SDS011;31400;48.132;20.872;2022-08-19T13:21:27;8.23;;;3.83;;
45688;SDS011;31400;48.132;20.872;2022-08-19T13:24:00;5.75;;;3.22;;
45688;SDS011;31400;48.132;20.872;2022-08-19T13:26:26;7.13;;;4.57;;
45688;SDS011;31400;48.132;20.872;2022-08-19T13:28:52;5.10;;;4.10;;
45688;SDS011;31400;48.132;20.872;2022-08-19T13:31:39;6.78;;;3.45;;
45688;SDS011;31400;48.132;20.872;2022-08-19T13:34:41;4.82;;;3.33;;
45688;SDS011;31400;48.132;20.872;2022-08-19T13:37:08;7.22;;;3.83;;
45688;SDS011;31400;48.132;20.872;2022-08-19T13:39:35;5.72;;;3.67;;
45688;SDS011;31400;48.132;20.872;2022-08-19T13:42:01;5.40;;;3.60;;
45688;SDS011;31400;48.132;20.872;2022-08-19T13:44:37;6.07;;;3.72;;
45688;SDS011;31400;48.132;20.872;2022-08-19T13:47:06;5.65;;;3.95;;
45688;SDS011;31400;48.132;20.872;2022-08-19T13:49:34;4.78;;;3.58;;
45688;SDS011;31400;48.132;20.872;2022-08-19T13:52:02;5.63;;;3.42;;
45688;SDS011;31400;48.132;20.872;2022-08-19T13:54:28;6.70;;;4.32;;
45688;SDS011;31400;48.132;20.872;2022-08-19T13:56:58;4.70;;;3.78;;
45688;SDS011;31400;48.132;20.872;2022-08-19T13:59:24;3.85;;;2.83;;
45688;SDS011;31400;48.132;20.872;2022-08-19T14:01:50;5.10;;;3.63;;
45688;SDS011;31400;48.132;20.872;2022-08-19T14:04:24;6.38;;;3.42;;
45688;SDS011;31400;48.132;20.872;2022-08-19T14:06:50;4.97;;;3.30;;
45688;SDS011;31400;48.132;20.872;2022-08-19T14:09:20;5.72;;;3.78;;
45688;SDS011;31400;48.132;20.872;2022-08-19T14:11:46;5.90;;;3.60;;
45688;SDS011;31400;48.132;20.872;2022-08-19T14:14:12;10.95;;;3.25;;
45688;SDS011;31400;48.132;20.872;2022-08-19T14:16:48;7.72;;;3.58;;
45688;SDS011;31400;48.132;20.872;2022-08-19T14:19:14;5.55;;;3.63;;
45688;SDS011;31400;48.132;20.872;2022-08-19T14:21:48;5.80;;;2.97;;
45688;SDS011;31400;48.132;20.872;2022-08-19T14:24:14;5.05;;;3.47;;
45688;SDS011;31400;48.132;20.872;2022-08-19T14:26:43;4.28;;;3.05;;
45688;SDS011;31400;48.132;20.872;2022-08-19T14:29:09;4.63;;;3.47;;
45688;SDS011;31400;48.132;20.872;2022-08-19T14:31:35;5.30;;;3.80;;
45688;SDS011;31400;48.132;20.872;2022-08-19T14:34:01;8.48;;;3.63;;
45688;SDS011;31400;48.132;20.872;2022-08-19T14:36:27;6.78;;;3.97;;
45688;SDS011;31400;48.132;20.872;2022-08-19T14:38:53;5.63;;;3.88;;
45688;SDS011;31400;48.132;20.872;2022-08-19T14:41:21;5.85;;;3.80;;
45688;SDS011;31400;48.132;20.872;2022-08-19T14:43:48;4.95;;;3.25;;
45688;SDS011;31400;48.132;20.872;2022-08-19T14:46:15;6.68;;;3.85;;
45688;SDS011;31400;48.132;20.872;2022-08-19T14:48:42;6.43;;;3.33;;
45688;SDS011;31400;48.132;20.872;2022-08-19T14:51:16;3.70;;;3.30;;
45688;SDS011;31400;48.132;20.872;2022-08-19T14:53:43;4.97;;;3.78;;
45688;SDS011;31400;48.132;20.872;2022-08-19T14:56:17;4.60;;;3.22;;
45688;SDS011;31400;48.132;20.872;2022-08-19T14:58:43;6.78;;;3.55;;
45688;SDS011;31400;48.132;20.872;2022-08-19T15:01:10;5.72;;;3.35;;
45688;SDS011;31400;48.132;20.872;2022-08-19T15:03:37;4.47;;;3.33;;
45688;SDS011;31400;48.132;20.872;2022-08-19T15:06:04;6.65;;;3.80;;
45688;SDS011;31400;48.132;20.872;2022-08-19T15:08:37;7.38;;;3.03;;
45688;SDS011;31400;48.132;20.872;2022-08-19T15:11:07;8.52;;;3.83;;
45688;SDS011;31400;48.132;20.872;2022-08-19T15:13:37;5.15;;;3.65;;
45688;SDS011;31400;48.132;20.872;2022-08-19T15:16:04;4.65;;;3.22;;
45688;SDS011;31400;48.132;20.872;2022-08-19T15:18:31;4.70;;;3.30;;
45688;SDS011;31400;48.132;20.872;2022-08-19T15:20:58;5.50;;;3.58;;
45688;SDS011;31400;48.132;20.872;2022-08-19T15:23:28;7.25;;;3.25;;
45688;SDS011;31400;48.132;20.872;2022-08-19T15:25:55;4.65;;;3.55;;
45688;SDS011;31400;48.132;20.872;2022-08-19T15:28:22;4.80;;;3.67;;
45688;SDS011;31400;48.132;20.872;2022-08-19T15:30:48;5.43;;;3.47;;
45688;SDS011;31400;48.132;20.872;2022-08-19T15:33:15;3.90;;;2.85;;